Time;durP1;ratioP1;P1;durP2;ratioP2;P2;SDS_P1;SDS_P2;PMS_P1;PMS_P2;Temp;Humidity;BMP_temperature;BMP_pressure;BME280_temperature;BME280_humidity;BME280_pressure;Samples;Min_cycle;Max_cycle;Signal;HPM_P1;HPM_P2
2022/06/26 00:02:02;;;;;;;9.20;6.30;;;;;;;21.90;61.53;99929.94;30744241;28;97370;-69
2022/06/26 00:17:02;;;;;;;10.77;7.07;;;;;;;21.24;62.51;99933.28;30742853;28;96592;-71
2022/06/26 00:32:05;;;;;;;8.53;6.40;;;;;;;20.96;63.71;99937.72;30740089;28;97578;-69
2022/06/26 00:47:06;;;;;;;8.90;6.17;;;;;;;20.39;64.71;99941.28;30739326;28;97670;-69
2022/06/26 01:02:06;;;;;;;8.77;7.15;;;;;;;20.04;65.76;99944.91;30738654;28;97015;-71
2022/06/26 01:17:07;;;;;;;11.35;7.18;;;;;;;19.51;66.98;99950.25;30736509;28;97005;-67
2022/06/26 01:32:07;;;;;;;8.32;7.50;;;;;;;19.13;68.03;99946.13;30735298;28;96806;-68
2022/06/26 01:47:08;;;;;;;11.68;8.27;;;;;;;18.87;69.48;99953.53;30734665;28;96780;-70
2022/06/26 02:02:08;;;;;;;10.70;8.27;;;;;;;18.69;70.18;99950.91;30732620;28;96840;-71
2022/06/26 02:17:08;;;;;;;12.52;8.98;;;;;;;18.55;71.09;99955.69;30732154;28;96701;-71
2022/06/26 02:32:09;;;;;;;12.05;10.00;;;;;;;18.51;71.73;99976.88;30730375;28;104719;-69
2022/06/26 02:47:09;;;;;;;11.25;10.02;;;;;;;18.33;72.17;99982.28;30730273;28;97436;-71
2022/06/26 03:02:09;;;;;;;13.80;9.75;;;;;;;18.38;72.75;100006.72;30729020;28;96778;-68
2022/06/26 03:17:10;;;;;;;12.75;9.13;;;;;;;18.43;72.92;100006.88;30743679;28;96662;-70
2022/06/26 03:32:10;;;;;;;12.60;9.55;;;;;;;18.55;73.07;100007.75;30745679;28;96747;-67
2022/06/26 03:47:11;;;;;;;11.77;10.50;;;;;;;18.79;72.77;100021.34;30743817;28;97220;-70
2022/06/26 04:02:11;;;;;;;14.32;10.90;;;;;;;19.04;71.73;100025.78;30743699;28;97490;-69
2022/06/26 04:17:12;;;;;;;12.27;10.15;;;;;;;19.32;70.71;100032.44;30741225;28;97302;-70
2022/06/26 04:32:12;;;;;;;13.48;9.55;;;;;;;19.63;69.71;100047.53;30739718;28;96872;-69
2022/06/26 04:47:12;;;;;;;11.00;8.95;;;;;;;19.99;68.62;100047.56;30741274;28;97152;-71
2022/06/26 05:02:13;;;;;;;10.07;8.70;;;;;;;20.43;67.51;100058.78;30736578;28;97260;-67
2022/06/26 05:17:13;;;;;;;11.98;8.52;;;;;;;20.95;66.17;100058.78;30733907;28;99612;-67
2022/06/26 05:32:14;;;;;;;10.53;8.70;;;;;;;21.62;64.76;100095.19;30824477;28;97641;-70
2022/06/26 05:47:15;;;;;;;9.23;7.43;;;;;;;22.19;63.04;100098.75;30845887;28;97484;-69
2022/06/26 06:02:15;;;;;;;8.87;7.77;;;;;;;22.76;61.05;100100.31;30843643;28;97234;-68
2022/06/26 06:32:35;;;;;;;10.37;8.27;;;;;;;24.58;56.37;100123.34;30727635;28;96794;-69
2022/06/26 06:47:36;;;;;;;12.45;8.75;;;;;;;25.16;53.99;100136.94;30738018;28;97780;-70
2022/06/26 07:02:37;;;;;;;11.33;8.60;;;;;;;25.97;51.50;100134.56;30746473;28;97383;-68
2022/06/26 07:17:38;;;;;;;12.43;8.73;;;;;;;26.83;49.43;100125.63;30745438;28;97107;-71
2022/06/26 07:32:38;;;;;;;11.50;8.63;;;;;;;27.77;46.54;100127.50;30744318;28;96836;-71
2022/06/26 07:47:38;;;;;;;9.27;7.57;;;;;;;28.76;43.89;100119.13;30804404;28;98496;-70
2022/06/26 08:02:39;;;;;;;9.20;7.20;;;;;;;29.40;41.64;100125.09;30852982;28;97225;-69
2022/06/26 08:17:39;;;;;;;9.00;7.85;;;;;;;29.96;39.80;100120.59;30850985;28;96852;-73
2022/06/26 08:32:40;;;;;;;7.45;6.55;;;;;;;30.96;37.87;100121.97;30850204;28;97421;-68
2022/06/26 08:47:41;;;;;;;6.78;6.05;;;;;;;30.51;35.75;100122.63;30850016;28;97132;-70
2022/06/26 09:02:42;;;;;;;5.97;4.87;;;;;;;30.92;33.76;100114.63;30847782;28;97445;-70
2022/06/26 09:17:54;;;;;;;5.85;3.60;;;;;;;31.18;31.51;100123.13;30812523;28;96694;-73
2022/06/26 09:32:54;;;;;;;5.63;3.47;;;;;;;31.76;31.20;100106.91;30835664;28;97378;-68
2022/06/26 09:47:56;;;;;;;7.53;3.72;;;;;;;31.70;30.00;100112.56;30841002;28;97259;-71
2022/06/26 10:18:52;;;;;;;7.53;3.93;;;;;;;31.84;29.56;100104.19;30771504;28;97790;-78
2022/06/26 10:33:53;;;;;;;7.40;3.97;;;;;;;32.33;29.68;100095.22;30741469;28;98082;-68
2022/06/26 10:48:55;;;;;;;4.47;3.60;;;;;;;32.39;28.86;100104.94;30734693;28;117400;-68
2022/06/26 11:03:55;;;;;;;5.13;3.87;;;;;;;32.04;28.67;100100.09;30738351;28;97457;-70
2022/06/26 11:18:56;;;;;;;5.88;3.20;;;;;;;32.41;28.62;100086.16;30737404;28;97384;-65
2022/06/26 11:34:14;;;;;;;4.63;3.00;;;;;;;32.10;27.77;100075.16;30750173;28;97587;-65
2022/06/26 11:49:14;;;;;;;6.57;3.40;;;;;;;32.46;27.32;100065.91;30824626;28;97271;-69
2022/06/26 12:04:16;;;;;;;4.82;3.70;;;;;;;32.67;27.06;100072.44;30742967;28;97008;-77
2022/06/26 12:19:18;;;;;;;5.67;3.60;;;;;;;33.02;27.13;100072.47;30736482;28;97549;-66
2022/06/26 12:34:18;;;;;;;5.23;3.80;;;;;;;33.33;26.94;100066.00;30739499;28;97061;-76
2022/06/26 12:49:19;;;;;;;4.22;3.83;;;;;;;33.57;26.96;100064.63;30735124;28;97184;-66
2022/06/26 13:04:19;;;;;;;6.93;3.60;;;;;;;33.99;25.82;100053.00;30862889;28;97236;-65
2022/06/26 13:19:19;;;;;;;7.32;3.17;;;;;;;33.81;25.92;100049.50;30885767;28;97175;-76
2022/06/26 13:34:20;;;;;;;7.25;3.85;;;;;;;34.12;25.84;100051.97;30844534;28;97348;-75
2022/06/26 13:49:20;;;;;;;8.48;4.25;;;;;;;34.29;25.59;100056.56;30843110;28;96679;-77
2022/06/26 14:04:20;;;;;;;6.18;4.30;;;;;;;33.10;26.84;100064.53;30790576;28;97028;-67
2022/06/26 14:19:21;;;;;;;5.22;4.13;;;;;;;32.95;27.04;100063.06;30850947;28;97308;-76
2022/06/26 14:34:21;;;;;;;4.95;4.18;;;;;;;32.91;27.35;100054.63;30850440;28;106347;-76
2022/06/26 14:49:21;;;;;;;4.40;3.67;;;;;;;32.65;27.67;100052.63;30851277;28;96642;-75
2022/06/26 15:04:22;;;;;;;4.28;3.63;;;;;;;32.25;27.99;100038.09;30853739;28;107074;-78
2022/06/26 15:19:22;;;;;;;6.22;4.20;;;;;;;31.56;29.54;100059.47;30868038;28;97051;-71
2022/06/26 15:34:23;;;;;;;7.68;4.28;;;;;;;30.88;31.48;100062.19;30866597;28;96961;-73
2022/06/26 15:49:23;;;;;;;8.73;4.85;;;;;;;30.89;32.30;100052.81;30864483;28;98630;-68
2022/06/26 16:04:23;;;;;;;4.20;3.58;;;;;;;30.42;35.57;100052.97;30839129;28;97024;-65
2022/06/26 16:19:24;;;;;;;6.03;4.50;;;;;;;29.71;39.54;100045.78;30856373;28;97387;-72
2022/06/26 16:34:24;;;;;;;6.90;4.57;;;;;;;29.58;40.08;100043.84;30857150;28;96812;-72
2022/06/26 16:49:24;;;;;;;7.90;4.50;;;;;;;29.55;40.07;100030.72;30856477;28;96933;-65
2022/06/26 17:04:25;;;;;;;7.38;4.65;;;;;;;29.38;40.11;100031.31;30881816;28;97159;-65
2022/06/26 17:19:25;;;;;;;7.13;4.50;;;;;;;29.16;40.41;100046.44;30842088;28;97528;-69
2022/06/26 17:34:26;;;;;;;9.27;4.97;;;;;;;28.91;41.66;100053.13;30852364;28;97359;-67
2022/06/26 17:49:26;;;;;;;6.40;4.65;;;;;;;28.74;42.22;100066.53;30854008;28;98070;-66
2022/06/26 18:04:26;;;;;;;5.68;4.38;;;;;;;28.68;43.52;100058.38;30854970;28;97486;-65
2022/06/26 18:19:27;;;;;;;6.28;4.80;;;;;;;28.41;43.88;100069.91;30811013;28;97698;-76
2022/06/26 18:34:27;;;;;;;8.32;5.32;;;;;;;27.93;44.45;100073.44;30840339;28;103868;-74
2022/06/26 18:49:28;;;;;;;8.85;6.00;;;;;;;27.98;45.16;100078.03;30859576;28;97946;-74
2022/06/26 19:04:28;;;;;;;8.85;5.15;;;;;;;27.90;45.23;100087.72;30857773;28;97260;-67
2022/06/26 19:19:29;;;;;;;10.70;6.03;;;;;;;27.68;46.19;100112.78;30857412;28;96887;-75
2022/06/26 19:34:29;;;;;;;10.20;6.15;;;;;;;27.29;47.10;100127.31;30854415;28;97481;-79
2022/06/26 20:04:49;;;;;;;10.60;6.00;;;;;;;26.63;49.44;100138.25;30851004;28;96744;-73
2022/06/26 20:19:49;;;;;;;8.50;6.28;;;;;;;26.41;49.86;100137.78;30849994;28;97331;-72
2022/06/26 20:34:50;;;;;;;8.82;4.88;;;;;;;26.05;48.81;100148.78;30851173;28;97346;-69
2022/06/26 20:49:50;;;;;;;7.53;4.63;;;;;;;25.96;48.25;100154.75;30852957;28;97124;-72
2022/06/26 21:04:53;;;;;;;7.72;4.78;;;;;;;25.84;47.82;100152.31;30854506;28;97515;-68
2022/06/26 21:19:53;;;;;;;9.13;5.10;;;;;;;25.38;48.14;100156.91;30845963;28;97435;-73
2022/06/26 21:34:57;;;;;;;7.60;5.13;;;;;;;24.89;48.37;100156.22;30845791;28;97372;-67
2022/06/26 21:50:18;;;;;;;7.90;5.67;;;;;;;24.69;49.08;100150.66;30844345;28;96993;-76
2022/06/26 22:05:18;;;;;;;6.53;4.30;;;;;;;24.10;49.57;100149.75;30845750;28;97173;-69
2022/06/26 22:20:20;;;;;;;9.60;5.25;;;;;;;23.36;50.91;100162.97;30840711;28;96882;-76
2022/06/26 22:35:21;;;;;;;7.70;4.77;;;;;;;23.09;51.74;100152.03;30776683;28;97470;-69
2022/06/26 22:50:22;;;;;;;9.00;7.57;;;;;;;22.80;52.28;100158.50;30864507;28;96927;-73
2022/06/26 23:05:26;;;;;;;6.80;5.40;;;;;;;22.57;53.49;100145.97;30867617;28;97611;-75
2022/06/26 23:20:26;;;;;;;8.23;5.30;;;;;;;22.80;53.66;100138.66;30857035;28;97618;-67
2022/06/26 23:35:27;;;;;;;7.50;5.33;;;;;;;22.73;53.56;100133.44;30862042;28;97704;-74
2022/06/26 23:50:27;;;;;;;6.07;4.82;;;;;;;22.55;54.17;100129.09;30868108;28;97434;-72
